createdAt,value
2018-01-07T00:00:37.324Z,6.57
2018-01-07T00:02:30.173Z,6.56
2018-01-07T00:03:30.104Z,6.48
2018-01-07T00:05:23.051Z,6.54
2018-01-07T00:06:23.023Z,6.60
2018-01-07T00:08:15.969Z,6.56
2018-01-07T00:09:15.924Z,6.59
2018-01-07T00:11:08.848Z,6.60
2018-01-07T00:12:08.808Z,6.56
2018-01-07T00:14:01.849Z,6.54
2018-01-07T00:15:01.648Z,6.49
2018-01-07T00:16:54.653Z,6.60
2018-01-07T00:17:54.562Z,6.56
2018-01-07T00:19:47.534Z,6.46
2018-01-07T00:20:47.487Z,6.52
2018-01-07T00:22:40.732Z,6.52
2018-01-07T00:23:40.575Z,6.56
2018-01-07T00:25:33.517Z,6.42
2018-01-07T00:26:33.484Z,6.51
2018-01-07T00:28:26.442Z,6.46
2018-01-07T00:29:26.418Z,6.48
2018-01-07T00:31:19.523Z,6.52
2018-01-07T00:32:19.469Z,6.52
2018-01-07T00:34:12.562Z,6.49
2018-01-07T00:35:12.374Z,6.52
2018-01-07T00:37:05.316Z,6.57
2018-01-07T00:38:05.287Z,6.63
2018-01-07T00:39:58.433Z,6.52
2018-01-07T00:40:58.362Z,6.44
2018-01-07T00:42:51.318Z,6.48
2018-01-07T00:43:51.270Z,6.46
2018-01-07T00:45:44.269Z,6.46
2018-01-07T00:46:44.201Z,6.48
2018-01-07T00:48:37.020Z,6.41
2018-01-07T00:49:36.994Z,6.51
2018-01-07T00:51:29.928Z,6.51
2018-01-07T00:52:29.771Z,6.51
2018-01-07T00:54:22.733Z,6.46
2018-01-07T00:55:22.654Z,6.46
2018-01-07T00:57:15.618Z,6.44
2018-01-07T00:58:15.591Z,6.46
2018-01-07T01:00:08.730Z,6.45
2018-01-07T01:01:08.654Z,6.49
2018-01-07T01:03:01.468Z,6.35
2018-01-07T01:04:01.413Z,6.30
2018-01-07T01:05:54.365Z,6.35
2018-01-07T01:06:54.334Z,6.26
2018-01-07T01:08:47.140Z,6.24
2018-01-07T01:09:47.088Z,6.28
2018-01-07T01:11:40.208Z,6.24
2018-01-07T01:12:40.164Z,6.26
2018-01-07T01:14:33.095Z,6.35
2018-01-07T01:15:33.042Z,6.28
2018-01-07T01:17:26.118Z,6.24
2018-01-07T01:18:26.053Z,6.27
2018-01-07T01:20:18.871Z,6.22
2018-01-07T01:21:18.830Z,6.24
2018-01-07T01:23:11.807Z,6.35
2018-01-07T01:24:11.744Z,6.38
2018-01-07T01:26:04.694Z,6.20
2018-01-07T01:27:04.673Z,6.19
2018-01-07T01:28:57.614Z,6.33
2018-01-07T01:29:57.561Z,6.16
2018-01-07T01:31:50.407Z,6.20
2018-01-07T01:32:50.348Z,6.19
2018-01-07T01:34:43.318Z,6.17
2018-01-07T01:35:43.268Z,6.12
2018-01-07T01:37:36.204Z,6.17
2018-01-07T01:38:36.153Z,6.19
2018-01-07T01:40:29.258Z,6.05
2018-01-07T01:41:29.203Z,6.01
2018-01-07T01:43:22.023Z,6.05
2018-01-07T01:44:21.957Z,6.12
2018-01-07T01:46:14.910Z,6.09
2018-01-07T01:47:14.861Z,5.93
2018-01-07T01:49:07.829Z,6.05
2018-01-07T01:50:07.762Z,5.94
2018-01-07T01:52:00.884Z,5.89
2018-01-07T01:53:00.839Z,5.90
2018-01-07T01:54:53.817Z,5.82
2018-01-07T01:55:53.760Z,5.90
2018-01-07T01:57:46.549Z,5.84
2018-01-07T01:58:46.520Z,5.84
2018-01-07T02:00:39.705Z,5.82
2018-01-07T02:01:39.633Z,5.68
2018-01-07T02:03:32.423Z,5.73
2018-01-07T02:04:32.390Z,5.73
2018-01-07T02:06:25.357Z,5.64
2018-01-07T02:07:25.279Z,5.62
2018-01-07T02:09:18.232Z,5.64
2018-01-07T02:10:18.194Z,5.56
2018-01-07T02:12:11.014Z,5.56
2018-01-07T02:13:10.949Z,5.54
2018-01-07T02:15:03.915Z,5.50
2018-01-07T02:16:03.869Z,5.62
2018-01-07T02:17:56.833Z,5.54
2018-01-07T02:18:56.767Z,5.47
2018-01-07T02:20:49.718Z,5.41
2018-01-07T02:21:49.660Z,5.41
2018-01-07T02:23:42.478Z,5.41
2018-01-07T02:24:42.434Z,5.41
2018-01-07T02:26:35.422Z,5.39
2018-01-07T02:27:35.365Z,5.33
2018-01-07T02:29:28.168Z,5.47
2018-01-07T02:30:28.128Z,5.36
2018-01-07T02:32:21.087Z,5.30
2018-01-07T02:33:21.028Z,5.35
2018-01-07T02:35:14.194Z,5.30
2018-01-07T02:36:14.128Z,5.28
2018-01-07T02:38:06.932Z,5.25
2018-01-07T02:39:06.873Z,5.28
2018-01-07T02:40:59.818Z,5.25
2018-01-07T02:41:59.779Z,5.15
2018-01-07T02:43:52.585Z,5.18
2018-01-07T02:44:52.525Z,5.23
2018-01-07T02:46:45.381Z,5.10
2018-01-07T02:47:45.304Z,4.99
2018-01-07T02:49:38.110Z,5.02
2018-01-07T02:50:38.070Z,5.07
2018-01-07T02:52:31.029Z,5.05
2018-01-07T02:53:30.970Z,5.05
2018-01-07T02:55:23.893Z,5.04
2018-01-07T02:56:24.005Z,4.99
2018-01-07T02:58:16.810Z,5.05
2018-01-07T02:59:16.759Z,4.97
2018-01-07T03:01:09.561Z,5.04
2018-01-07T03:02:09.524Z,5.02
2018-01-07T03:04:02.488Z,5.07
2018-01-07T03:05:02.420Z,4.94
2018-01-07T03:06:55.358Z,4.92
2018-01-07T03:07:55.321Z,4.90
2018-01-07T03:09:48.314Z,4.97
2018-01-07T03:10:48.249Z,4.99
2018-01-07T03:12:41.054Z,4.94
2018-01-07T03:13:41.013Z,4.96
2018-01-07T03:15:33.990Z,4.93
2018-01-07T03:16:33.929Z,4.93
2018-01-07T03:18:26.848Z,4.92
2018-01-07T03:19:26.830Z,4.84
2018-01-07T03:21:19.768Z,4.93
2018-01-07T03:22:19.723Z,4.90
2018-01-07T03:24:12.593Z,4.93
2018-01-07T03:25:12.525Z,4.93
2018-01-07T03:27:05.473Z,4.90
2018-01-07T03:28:05.437Z,4.97
2018-01-07T03:29:58.244Z,4.92
2018-01-07T03:30:58.195Z,4.94
2018-01-07T03:32:51.158Z,4.89
2018-01-07T03:33:51.118Z,4.93
2018-01-07T03:35:44.027Z,4.89
2018-01-07T03:36:43.971Z,4.89
2018-01-07T03:38:36.925Z,5.00
2018-01-07T03:39:36.884Z,4.96
2018-01-07T03:41:29.839Z,4.93
2018-01-07T03:42:29.908Z,4.90
2018-01-07T03:44:22.710Z,4.90
2018-01-07T03:45:22.678Z,4.90
2018-01-07T03:47:15.497Z,4.87
2018-01-07T03:48:15.439Z,4.92
2018-01-07T03:50:08.340Z,5.00
2018-01-07T03:51:08.207Z,4.90
2018-01-07T03:53:01.154Z,4.82
2018-01-07T03:54:01.108Z,4.78
2018-01-07T03:55:54.058Z,4.80
2018-01-07T03:56:54.014Z,4.86
2018-01-07T03:58:47.214Z,4.87
2018-01-07T03:59:47.149Z,4.93
2018-01-07T04:01:40.109Z,4.89
2018-01-07T04:02:40.055Z,4.82
2018-01-07T04:04:33.010Z,4.80
2018-01-07T04:05:32.963Z,4.75
2018-01-07T04:07:25.805Z,4.78
2018-01-07T04:08:25.754Z,4.86
2018-01-07T04:10:18.573Z,4.86
2018-01-07T04:11:18.513Z,4.82
2018-01-07T04:13:11.480Z,4.90
2018-01-07T04:14:11.423Z,4.75
2018-01-07T04:16:04.358Z,4.84
2018-01-07T04:17:04.318Z,4.86
2018-01-07T04:18:57.484Z,4.90
2018-01-07T04:19:57.430Z,4.86
2018-01-07T04:21:50.371Z,4.78
2018-01-07T04:22:50.324Z,4.82
2018-01-07T04:24:43.304Z,4.89
2018-01-07T04:25:43.237Z,4.82
2018-01-07T04:27:36.339Z,4.84
2018-01-07T04:28:36.305Z,4.90
2018-01-07T04:30:29.236Z,4.87
2018-01-07T04:31:29.171Z,4.78
2018-01-07T04:33:22.165Z,4.80
2018-01-07T04:34:22.105Z,4.75
2018-01-07T04:36:15.264Z,4.84
2018-01-07T04:37:15.176Z,4.82
2018-01-07T04:39:08.104Z,4.82
2018-01-07T04:40:08.044Z,4.82
2018-01-07T04:42:01.035Z,4.82
2018-01-07T04:43:00.973Z,4.78
2018-01-07T04:44:54.167Z,4.75
2018-01-07T04:45:54.064Z,4.80
2018-01-07T04:47:46.988Z,4.84
2018-01-07T04:48:46.945Z,4.82
2018-01-07T04:50:39.905Z,4.74
2018-01-07T04:51:39.845Z,4.68
2018-01-07T04:53:32.655Z,4.77
2018-01-07T04:54:32.610Z,4.74
2018-01-07T04:56:25.632Z,4.82
2018-01-07T04:57:25.514Z,4.74
2018-01-07T04:59:18.469Z,4.77
2018-01-07T05:00:18.421Z,4.80
2018-01-07T05:02:11.428Z,4.77
2018-01-07T05:03:11.350Z,4.86
2018-01-07T05:05:04.152Z,4.92
2018-01-07T05:06:04.120Z,4.82
2018-01-07T05:07:57.184Z,4.84
2018-01-07T05:08:57.109Z,4.73
2018-01-07T05:10:50.073Z,4.84
2018-01-07T05:11:50.041Z,4.75
2018-01-07T05:13:42.955Z,4.90
2018-01-07T05:14:42.915Z,4.89
2018-01-07T05:16:36.030Z,4.90
2018-01-07T05:17:35.979Z,4.94
2018-01-07T05:19:28.798Z,4.94
2018-01-07T05:20:28.731Z,4.99
2018-01-07T05:22:21.544Z,4.90
2018-01-07T05:23:21.494Z,4.99
2018-01-07T05:25:14.443Z,4.99
2018-01-07T05:26:14.384Z,4.84
2018-01-07T05:28:07.238Z,4.90
2018-01-07T05:29:07.191Z,4.96
2018-01-07T05:31:00.128Z,4.90
2018-01-07T05:32:00.088Z,5.02
2018-01-07T05:33:53.033Z,4.87
2018-01-07T05:34:52.988Z,4.99
2018-01-07T05:36:45.946Z,5.00
2018-01-07T05:37:45.881Z,4.96
2018-01-07T05:39:38.698Z,4.96
2018-01-07T05:40:38.628Z,4.97
2018-01-07T05:42:31.573Z,4.92
2018-01-07T05:43:31.541Z,4.99
2018-01-07T05:45:24.501Z,5.10
2018-01-07T05:46:24.450Z,5.02
2018-01-07T05:48:17.381Z,4.94
2018-01-07T05:49:17.349Z,4.97
2018-01-07T05:51:10.174Z,5.10
2018-01-07T05:52:10.102Z,5.02
2018-01-07T05:54:03.049Z,4.99
2018-01-07T05:55:03.023Z,4.97
2018-01-07T05:56:55.983Z,4.97
2018-01-07T05:57:55.940Z,5.04
2018-01-07T05:59:48.892Z,5.05
2018-01-07T06:00:48.835Z,5.02
2018-01-07T06:02:41.884Z,4.92
2018-01-07T06:03:41.850Z,4.94
2018-01-07T06:05:34.810Z,4.97
2018-01-07T06:06:34.745Z,4.99
2018-01-07T06:08:27.698Z,5.04
2018-01-07T06:09:27.651Z,5.04
2018-01-07T06:11:20.474Z,5.10
2018-01-07T06:12:20.444Z,5.10
2018-01-07T06:14:13.314Z,5.02
2018-01-07T06:15:13.196Z,4.99
2018-01-07T06:17:06.139Z,4.96
2018-01-07T06:18:06.089Z,4.99
2018-01-07T06:19:59.074Z,4.97
2018-01-07T06:20:59.032Z,4.92
2018-01-07T06:22:52.218Z,4.97
2018-01-07T06:23:52.109Z,4.92
2018-01-07T06:25:45.082Z,4.99
2018-01-07T06:26:45.015Z,4.84
2018-01-07T06:28:37.961Z,4.94
2018-01-07T06:29:37.926Z,4.92
2018-01-07T06:31:31.074Z,4.87
2018-01-07T06:32:30.994Z,4.90
2018-01-07T06:34:23.981Z,4.80
2018-01-07T06:35:23.924Z,4.87
2018-01-07T06:37:16.872Z,4.89
2018-01-07T06:38:16.852Z,4.89
2018-01-07T06:40:09.752Z,4.92
2018-01-07T06:41:09.669Z,4.92
2018-01-07T06:43:02.643Z,4.87
2018-01-07T06:44:02.577Z,4.92
2018-01-07T06:45:55.524Z,4.87
2018-01-07T06:46:55.489Z,4.87
2018-01-07T06:48:48.755Z,4.94
2018-01-07T06:49:48.579Z,4.84
2018-01-07T06:51:41.691Z,4.90
2018-01-07T06:52:41.646Z,4.82
2018-01-07T06:54:34.594Z,4.80
2018-01-07T06:55:34.541Z,4.78
2018-01-07T06:57:27.347Z,4.92
2018-01-07T06:58:27.310Z,4.90
2018-01-07T07:00:20.282Z,4.92
2018-01-07T07:01:20.063Z,4.86
2018-01-07T07:03:12.992Z,4.75
2018-01-07T07:04:12.950Z,4.75
2018-01-07T07:06:05.909Z,4.73
2018-01-07T07:07:05.849Z,4.73
2018-01-07T07:08:59.295Z,4.82
2018-01-07T07:09:58.940Z,4.67
2018-01-07T07:11:51.892Z,4.86
2018-01-07T07:12:51.844Z,4.78
2018-01-07T07:14:44.795Z,4.78
2018-01-07T07:15:44.739Z,4.66
2018-01-07T07:17:37.960Z,4.75
2018-01-07T07:18:37.825Z,4.74
2018-01-07T07:20:30.800Z,4.71
2018-01-07T07:21:30.724Z,4.71
2018-01-07T07:23:23.667Z,4.74
2018-01-07T07:24:23.638Z,4.73
2018-01-07T07:26:16.811Z,4.68
2018-01-07T07:27:16.701Z,4.67
2018-01-07T07:29:09.812Z,4.73
2018-01-07T07:30:09.783Z,4.71
2018-01-07T07:32:03.072Z,4.60
2018-01-07T07:33:02.907Z,4.63
2018-01-07T07:34:55.857Z,4.60
2018-01-07T07:35:55.824Z,4.62
2018-01-07T07:37:48.800Z,4.56
2018-01-07T07:38:48.744Z,4.58
2018-01-07T07:40:41.936Z,4.56
2018-01-07T07:41:41.825Z,4.63
2018-01-07T07:43:34.784Z,4.75
2018-01-07T07:44:34.730Z,4.62
2018-01-07T07:46:27.681Z,4.63
2018-01-07T07:47:27.624Z,4.55
2018-01-07T07:49:20.451Z,4.56
2018-01-07T07:50:20.394Z,4.56
2018-01-07T07:52:13.357Z,4.60
2018-01-07T07:53:13.186Z,4.70
2018-01-07T07:55:06.151Z,4.71
2018-01-07T07:56:06.101Z,4.70
2018-01-07T07:57:59.056Z,4.56
2018-01-07T07:58:59.043Z,4.55
2018-01-07T08:00:52.116Z,4.60
2018-01-07T08:01:52.070Z,4.68
2018-01-07T08:03:45.022Z,4.67
2018-01-07T08:04:44.965Z,4.70
2018-01-07T08:06:37.926Z,4.68
2018-01-07T08:07:37.885Z,4.80
2018-01-07T08:09:31.119Z,4.73
2018-01-07T08:10:30.989Z,4.82
2018-01-07T08:12:23.964Z,4.87
2018-01-07T08:13:23.920Z,4.78
2018-01-07T08:15:16.880Z,4.82
2018-01-07T08:16:16.831Z,4.87
2018-01-07T08:18:09.673Z,4.86
2018-01-07T08:19:09.609Z,4.80
2018-01-07T08:21:02.597Z,4.86
2018-01-07T08:22:02.529Z,4.93
2018-01-07T08:23:55.484Z,4.90
2018-01-07T08:24:55.433Z,4.96
2018-01-07T08:26:48.376Z,4.87
2018-01-07T08:27:48.336Z,4.84
2018-01-07T08:29:41.171Z,4.87
2018-01-07T08:30:41.110Z,4.87
2018-01-07T08:32:34.096Z,4.90
2018-01-07T08:33:34.049Z,4.86
2018-01-07T08:35:27.022Z,4.87
2018-01-07T08:36:26.945Z,4.90
2018-01-07T08:38:19.894Z,4.89
2018-01-07T08:39:19.855Z,4.94
2018-01-07T08:41:12.737Z,4.92
2018-01-07T08:42:12.656Z,4.87
2018-01-07T08:44:05.580Z,4.80
2018-01-07T08:45:05.542Z,4.92
2018-01-07T08:46:58.375Z,4.89
2018-01-07T08:47:58.302Z,4.90
2018-01-07T08:49:51.256Z,4.97
2018-01-07T08:50:51.206Z,5.07
2018-01-07T08:52:44.442Z,5.02
2018-01-07T08:53:44.279Z,4.97
2018-01-07T08:55:37.256Z,5.05
2018-01-07T08:56:37.190Z,5.10
2018-01-07T08:58:30.121Z,4.99
2018-01-07T08:59:30.087Z,5.07
2018-01-07T09:01:23.371Z,5.12
2018-01-07T09:02:23.317Z,5.18
2018-01-07T09:04:16.265Z,5.33
2018-01-07T09:05:16.219Z,5.32
2018-01-07T09:07:09.537Z,5.15
2018-01-07T09:08:09.282Z,5.12
2018-01-07T09:10:02.248Z,5.28
2018-01-07T09:11:02.199Z,5.08
2018-01-07T09:12:55.175Z,5.20
2018-01-07T09:13:55.142Z,5.12
2018-01-07T09:15:48.321Z,5.14
2018-01-07T09:16:48.231Z,5.11
2018-01-07T09:18:41.338Z,5.17
2018-01-07T09:19:41.300Z,5.14
2018-01-07T09:21:34.228Z,5.12
2018-01-07T09:22:34.181Z,5.30
2018-01-07T09:24:27.160Z,5.11
2018-01-07T09:25:26.989Z,5.14
2018-01-07T09:27:19.960Z,5.15
2018-01-07T09:28:19.887Z,5.11
2018-01-07T09:30:12.850Z,5.26
2018-01-07T09:31:12.826Z,5.25
2018-01-07T09:33:05.965Z,5.25
2018-01-07T09:34:05.870Z,5.36
2018-01-07T09:35:58.811Z,5.28
2018-01-07T09:36:58.774Z,5.33
2018-01-07T09:38:51.736Z,5.36
2018-01-07T09:39:51.681Z,5.32
2018-01-07T09:41:44.802Z,5.32
2018-01-07T09:42:44.756Z,5.35
2018-01-07T09:44:37.730Z,5.32
2018-01-07T09:45:37.673Z,5.28
2018-01-07T09:47:30.624Z,5.33
2018-01-07T09:48:30.588Z,5.33
2018-01-07T09:50:23.626Z,5.32
2018-01-07T09:51:23.361Z,5.17
2018-01-07T09:53:16.148Z,5.29
2018-01-07T09:54:16.102Z,5.23
2018-01-07T09:56:09.082Z,5.28
2018-01-07T09:57:09.030Z,5.28
2018-01-07T09:59:01.996Z,5.21
2018-01-07T10:00:02.032Z,5.33
2018-01-07T10:01:54.892Z,5.33
2018-01-07T10:02:54.840Z,5.35
2018-01-07T10:04:47.847Z,5.43
2018-01-07T10:05:47.631Z,5.38
2018-01-07T10:07:40.611Z,5.48
2018-01-07T10:08:40.560Z,5.41
2018-01-07T10:10:33.530Z,5.47
2018-01-07T10:11:33.461Z,5.39
2018-01-07T10:13:26.619Z,5.39
2018-01-07T10:14:26.563Z,5.39
2018-01-07T10:16:19.531Z,5.43
2018-01-07T10:17:19.479Z,5.41
2018-01-07T10:19:12.415Z,5.59
2018-01-07T10:20:12.463Z,5.53
2018-01-07T10:22:05.627Z,5.47
2018-01-07T10:23:05.452Z,5.48
2018-01-07T10:24:58.397Z,5.56
2018-01-07T10:25:58.366Z,5.59
2018-01-07T10:27:51.361Z,5.62
2018-01-07T10:28:51.299Z,5.69
2018-01-07T10:30:44.103Z,5.83
2018-01-07T10:31:44.058Z,5.80
2018-01-07T10:33:36.897Z,5.79
2018-01-07T10:34:36.827Z,5.72
2018-01-07T10:36:29.766Z,5.72
2018-01-07T10:37:29.737Z,5.75
2018-01-07T10:39:22.568Z,5.84
2018-01-07T10:40:22.502Z,5.80
2018-01-07T10:42:15.466Z,5.91
2018-01-07T10:43:15.407Z,5.87
2018-01-07T10:45:09.236Z,5.64
2018-01-07T10:46:09.202Z,5.79
2018-01-07T10:48:02.173Z,5.84
2018-01-07T10:49:02.117Z,5.82
2018-01-07T10:50:54.925Z,6.05
2018-01-07T10:51:54.887Z,6.02
2018-01-07T10:53:47.862Z,6.04
2018-01-07T10:54:47.797Z,5.99
2018-01-07T10:56:41.036Z,5.94
2018-01-07T10:57:40.882Z,5.99
2018-01-07T10:59:33.881Z,5.93
2018-01-07T11:00:33.838Z,5.79
2018-01-07T11:02:26.841Z,5.69
2018-01-07T11:03:26.781Z,5.76
2018-01-07T11:05:19.592Z,5.80
2018-01-07T11:06:19.531Z,5.90
2018-01-07T11:08:12.542Z,5.89
2018-01-07T11:09:12.495Z,5.86
2018-01-07T11:11:05.453Z,5.86
2018-01-07T11:12:05.567Z,5.69
2018-01-07T11:13:58.368Z,5.76
2018-01-07T11:14:58.322Z,5.82
2018-01-07T11:16:51.417Z,5.76
2018-01-07T11:17:51.391Z,5.80
2018-01-07T11:19:44.319Z,5.72
2018-01-07T11:20:44.253Z,5.86
2018-01-07T11:22:37.196Z,5.72
2018-01-07T11:23:37.158Z,5.69
2018-01-07T11:25:29.991Z,5.72
2018-01-07T11:26:29.927Z,5.75
2018-01-07T11:28:22.891Z,5.71
2018-01-07T11:29:22.852Z,5.75
2018-01-07T11:31:15.844Z,5.69
2018-01-07T11:32:15.766Z,5.69
2018-01-07T11:34:08.698Z,5.72
2018-01-07T11:35:08.670Z,5.82
2018-01-07T11:37:01.687Z,5.93
2018-01-07T11:38:01.599Z,5.91
2018-01-07T11:39:54.378Z,5.83
2018-01-07T11:40:54.347Z,5.80
2018-01-07T11:42:47.378Z,5.87
2018-01-07T11:43:47.316Z,5.80
2018-01-07T11:45:40.443Z,5.87
2018-01-07T11:46:40.401Z,5.83
2018-01-07T11:48:33.370Z,5.82
2018-01-07T11:49:33.299Z,5.83
2018-01-07T11:54:11.677Z,5.86
2018-01-07T11:55:11.632Z,5.86
2018-01-07T11:57:04.561Z,5.89
2018-01-07T11:58:04.477Z,5.83
2018-01-07T11:59:57.407Z,5.83
2018-01-07T12:00:57.353Z,5.84
2018-01-07T12:02:50.203Z,5.87
2018-01-07T12:03:50.121Z,5.82
2018-01-07T12:05:43.058Z,5.84
2018-01-07T12:06:42.891Z,5.84
2018-01-07T12:08:35.727Z,5.83
2018-01-07T12:09:35.646Z,5.80
2018-01-07T12:11:28.562Z,5.75
2018-01-07T12:12:28.514Z,5.79
2018-01-07T12:14:21.438Z,5.82
2018-01-07T12:15:21.418Z,5.86
2018-01-07T12:17:14.486Z,5.83
2018-01-07T12:18:14.459Z,5.87
2018-01-07T12:20:07.382Z,5.87
2018-01-07T12:21:07.302Z,5.82
2018-01-07T12:23:00.232Z,5.84
2018-01-07T12:24:00.187Z,5.80
2018-01-07T12:25:54.007Z,5.90
2018-01-07T12:26:53.932Z,5.79
2018-01-07T12:28:46.753Z,5.89
2018-01-07T12:29:46.734Z,5.93
2018-01-07T12:35:52.926Z,5.93
2018-01-07T12:36:52.852Z,5.87
2018-01-07T12:38:45.803Z,5.87
2018-01-07T12:39:45.734Z,5.89
2018-01-07T12:41:38.589Z,5.93
2018-01-07T12:42:38.498Z,5.87
2018-01-07T12:44:31.739Z,5.98
2018-01-07T12:45:31.534Z,5.93
2018-01-07T12:47:24.449Z,6.01
2018-01-07T12:48:24.406Z,5.99
2018-01-07T12:50:17.332Z,6.08
2018-01-07T12:51:17.297Z,5.98
2018-01-07T12:53:10.397Z,5.97
2018-01-07T12:54:10.356Z,5.93
2018-01-07T12:56:03.315Z,6.04
2018-01-07T12:57:03.269Z,6.01
2018-01-07T12:58:56.167Z,6.05
2018-01-07T12:59:56.133Z,6.04
2018-01-07T13:01:48.949Z,6.01
2018-01-07T13:02:48.898Z,6.08
2018-01-07T13:04:41.720Z,6.05
2018-01-07T13:05:41.654Z,6.02
2018-01-07T13:07:34.488Z,6.16
2018-01-07T13:08:34.422Z,6.12
2018-01-07T13:10:27.357Z,6.14
2018-01-07T13:11:27.316Z,6.14
2018-01-07T13:13:20.203Z,6.16
2018-01-07T13:14:20.193Z,6.14
2018-01-07T13:16:13.101Z,6.17
2018-01-07T13:17:13.037Z,6.16
2018-01-07T13:19:05.863Z,6.20
2018-01-07T13:20:05.813Z,6.33
2018-01-07T13:21:58.772Z,6.07
2018-01-07T13:22:58.692Z,6.02
2018-01-07T13:24:51.599Z,6.14
2018-01-07T13:25:51.561Z,6.08
2018-01-07T13:27:44.374Z,6.16
2018-01-07T13:28:44.324Z,6.08
2018-01-07T13:30:37.670Z,5.99
2018-01-07T13:31:37.466Z,6.02
2018-01-07T13:33:30.424Z,6.22
2018-01-07T13:34:30.375Z,6.19
2018-01-07T13:36:23.278Z,6.19
2018-01-07T13:37:23.225Z,6.26
2018-01-07T13:39:16.439Z,6.22
2018-01-07T13:40:16.389Z,6.22
2018-01-07T13:42:09.321Z,6.19
2018-01-07T13:43:09.259Z,6.16
2018-01-07T13:45:02.185Z,6.12
2018-01-07T13:46:02.143Z,6.08
2018-01-07T13:47:55.333Z,6.20
2018-01-07T13:48:55.199Z,6.19
2018-01-07T13:50:48.094Z,6.30
2018-01-07T13:51:48.058Z,6.42
2018-01-07T13:53:41.028Z,6.12
2018-01-07T13:54:40.959Z,6.16
2018-01-07T13:56:34.128Z,6.01
2018-01-07T13:57:34.052Z,5.97
2018-01-07T13:59:26.980Z,6.12
2018-01-07T14:00:26.933Z,5.94
2018-01-07T14:02:19.847Z,5.99
2018-01-07T14:03:19.787Z,6.05
2018-01-07T14:05:13.064Z,6.05
2018-01-07T14:06:12.887Z,6.05
2018-01-07T14:08:05.829Z,6.17
2018-01-07T14:09:05.755Z,6.04
2018-01-07T14:10:58.730Z,6.05
2018-01-07T14:11:58.667Z,5.98
2018-01-07T14:13:51.833Z,6.04
2018-01-07T14:14:51.742Z,6.01
2018-01-07T14:16:44.573Z,6.05
2018-01-07T14:17:44.493Z,6.05
2018-01-07T14:19:37.413Z,6.01
2018-01-07T14:20:37.363Z,6.02
2018-01-07T14:22:30.364Z,5.99
2018-01-07T14:23:30.264Z,6.05
2018-01-07T14:25:23.087Z,6.04
2018-01-07T14:26:23.050Z,6.04
2018-01-07T14:28:16.027Z,5.98
2018-01-07T14:29:15.931Z,5.87
2018-01-07T14:31:08.934Z,5.99
2018-01-07T14:32:08.918Z,6.07
2018-01-07T14:34:01.843Z,5.99
2018-01-07T14:35:01.784Z,5.84
2018-01-07T14:36:54.774Z,5.87
2018-01-07T14:37:54.634Z,5.87
2018-01-07T14:39:47.562Z,5.76
2018-01-07T14:40:47.544Z,5.80
2018-01-07T14:42:40.469Z,5.80
2018-01-07T14:43:40.531Z,5.71
2018-01-07T14:45:33.318Z,5.76
2018-01-07T14:46:33.272Z,5.79
2018-01-07T14:48:26.121Z,5.69
2018-01-07T14:49:26.062Z,5.71
2018-01-07T14:51:19.027Z,5.69
2018-01-07T14:52:19.005Z,5.69
2018-01-07T14:54:11.907Z,5.71
2018-01-07T14:55:11.910Z,5.73
2018-01-07T14:57:04.759Z,5.71
2018-01-07T14:58:04.767Z,5.64
2018-01-07T14:59:57.838Z,5.61
2018-01-07T15:00:57.755Z,5.54
2018-01-07T15:02:50.712Z,5.62
2018-01-07T15:03:50.638Z,5.64
2018-01-07T15:05:43.552Z,5.64
2018-01-07T15:06:43.501Z,5.61
2018-01-07T15:08:36.330Z,5.59
2018-01-07T15:09:36.252Z,5.64
2018-01-07T15:11:29.115Z,5.57
2018-01-07T15:12:29.009Z,5.68
2018-01-07T15:14:21.961Z,5.64
2018-01-07T15:15:21.878Z,5.61
2018-01-07T15:17:14.783Z,5.54
2018-01-07T15:18:14.748Z,5.59
2018-01-07T15:20:07.569Z,5.56
2018-01-07T15:21:07.516Z,5.51
2018-01-07T15:23:00.415Z,5.56
2018-01-07T15:24:00.371Z,5.61
2018-01-07T15:25:53.553Z,5.53
2018-01-07T15:26:53.503Z,5.53
2018-01-07T15:28:46.384Z,5.48
2018-01-07T15:29:46.352Z,5.53
2018-01-07T15:31:39.280Z,5.62
2018-01-07T15:32:39.199Z,5.56
2018-01-07T15:34:32.294Z,5.46
2018-01-07T15:35:32.177Z,5.44
2018-01-07T15:37:25.093Z,5.51
2018-01-07T15:38:25.050Z,5.61
2018-01-07T15:40:17.957Z,5.51
2018-01-07T15:41:17.909Z,5.46
2018-01-07T15:43:10.698Z,5.38
2018-01-07T15:44:10.659Z,5.41
2018-01-07T15:46:03.570Z,5.41
2018-01-07T15:47:03.510Z,5.43
2018-01-07T15:48:56.415Z,5.53
2018-01-07T15:49:56.407Z,5.51
2018-01-07T15:51:49.320Z,5.48
2018-01-07T15:52:49.270Z,5.46
2018-01-07T15:54:42.154Z,5.41
2018-01-07T15:55:42.118Z,5.39
2018-01-07T15:57:35.198Z,5.38
2018-01-07T15:58:35.050Z,5.39
2018-01-07T16:00:27.954Z,5.36
2018-01-07T16:01:27.904Z,5.41
2018-01-07T16:03:20.819Z,5.50
2018-01-07T16:04:20.778Z,5.41
2018-01-07T16:06:13.710Z,5.50
2018-01-07T16:07:13.630Z,5.44
2018-01-07T16:09:06.469Z,5.46
2018-01-07T16:10:06.415Z,5.36
2018-01-07T16:11:59.392Z,5.46
2018-01-07T16:12:59.293Z,5.39
2018-01-07T16:14:52.208Z,5.38
2018-01-07T16:15:52.166Z,5.43
2018-01-07T16:17:44.985Z,5.41
2018-01-07T16:18:44.948Z,5.43
2018-01-07T16:20:38.041Z,5.38
2018-01-07T16:21:38.001Z,5.30
2018-01-07T16:23:30.915Z,5.36
2018-01-07T16:24:30.886Z,5.33
2018-01-07T16:26:23.794Z,5.33
2018-01-07T16:27:23.777Z,5.46
2018-01-07T16:29:17.101Z,5.41
2018-01-07T16:30:16.955Z,5.48
2018-01-07T16:32:09.863Z,5.43
2018-01-07T16:33:09.892Z,5.33
2018-01-07T16:35:02.780Z,5.32
2018-01-07T16:36:02.728Z,5.33
2018-01-07T16:37:55.824Z,5.32
2018-01-07T16:38:55.740Z,5.32
2018-01-07T16:40:48.663Z,5.29
2018-01-07T16:41:48.620Z,5.30
2018-01-07T16:43:41.548Z,5.32
2018-01-07T16:44:41.500Z,5.32
2018-01-07T16:46:34.394Z,5.36
2018-01-07T16:47:34.349Z,5.29
2018-01-07T16:49:27.174Z,5.29
2018-01-07T16:50:27.132Z,5.26
2018-01-07T16:52:20.070Z,5.35
2018-01-07T16:53:20.016Z,5.30
2018-01-07T16:55:12.979Z,5.18
2018-01-07T16:56:12.914Z,5.21
2018-01-07T16:58:05.844Z,5.29
2018-01-07T16:59:05.784Z,5.30
2018-01-07T17:00:58.630Z,5.23
2018-01-07T17:01:58.530Z,5.18
2018-01-07T17:03:51.500Z,5.11
2018-01-07T17:04:51.439Z,5.23
2018-01-07T17:06:44.251Z,5.17
2018-01-07T17:07:44.196Z,5.23
2018-01-07T17:09:37.232Z,5.26
2018-01-07T17:10:37.198Z,5.28
2018-01-07T17:12:29.993Z,5.17
2018-01-07T17:13:29.949Z,5.20
2018-01-07T17:15:22.768Z,5.15
2018-01-07T17:16:22.718Z,5.18
2018-01-07T17:18:15.635Z,5.15
2018-01-07T17:19:15.570Z,5.32
2018-01-07T17:21:08.498Z,5.20
2018-01-07T17:22:08.471Z,5.14
2018-01-07T17:24:01.281Z,5.05
2018-01-07T17:25:01.213Z,5.11
2018-01-07T17:26:54.349Z,5.17
2018-01-07T17:27:54.260Z,5.26
2018-01-07T17:29:47.166Z,5.14
2018-01-07T17:30:47.140Z,5.17
2018-01-07T17:32:40.066Z,5.14
2018-01-07T17:33:40.009Z,5.12
2018-01-07T17:35:32.921Z,5.15
2018-01-07T17:36:32.907Z,5.14
2018-01-07T17:38:25.945Z,5.28
2018-01-07T17:39:25.866Z,5.14
2018-01-07T17:41:18.763Z,5.20
2018-01-07T17:42:18.719Z,5.02
2018-01-07T17:44:11.652Z,5.18
2018-01-07T17:45:11.618Z,5.20
2018-01-07T17:47:04.665Z,5.15
2018-01-07T17:48:04.624Z,5.18
2018-01-07T17:49:57.557Z,5.25
2018-01-07T17:50:57.487Z,5.17
2018-01-07T17:52:50.413Z,5.33
2018-01-07T17:53:50.485Z,5.25
2018-01-07T17:55:43.471Z,5.23
2018-01-07T17:56:43.415Z,5.21
2018-01-07T17:58:36.348Z,5.26
2018-01-07T17:59:36.269Z,5.20
2018-01-07T18:01:29.224Z,5.18
2018-01-07T18:02:29.154Z,5.17
2018-01-07T18:04:21.978Z,5.15
2018-01-07T18:05:21.914Z,5.15
2018-01-07T18:07:15.142Z,5.33
2018-01-07T18:08:14.944Z,5.23
2018-01-07T18:10:07.887Z,5.29
2018-01-07T18:11:07.819Z,5.30
2018-01-07T18:13:00.735Z,5.23
2018-01-07T18:14:00.796Z,5.25
2018-01-07T18:15:53.490Z,5.28
2018-01-07T18:16:53.440Z,5.17
2018-01-07T18:18:46.603Z,5.20
2018-01-07T18:19:46.493Z,5.28
2018-01-07T18:21:39.419Z,5.20
2018-01-07T18:22:39.358Z,5.17
2018-01-07T18:24:32.268Z,5.32
2018-01-07T18:25:32.258Z,5.32
2018-01-07T18:27:25.280Z,5.26
2018-01-07T18:28:25.230Z,5.20
2018-01-07T18:30:18.170Z,5.12
2018-01-07T18:31:18.159Z,5.17
2018-01-07T18:33:11.131Z,5.14
2018-01-07T18:34:11.068Z,5.14
2018-01-07T18:36:03.976Z,5.21
2018-01-07T18:37:03.950Z,5.12
2018-01-07T18:38:56.946Z,5.26
2018-01-07T18:39:56.884Z,5.17
2018-01-07T18:41:49.785Z,5.35
2018-01-07T18:42:49.744Z,5.08
2018-01-07T18:44:42.710Z,5.18
2018-01-07T18:45:42.638Z,5.14
2018-01-07T18:47:35.821Z,5.04
2018-01-07T18:48:35.723Z,5.07
2018-01-07T18:50:28.659Z,5.25
2018-01-07T18:51:28.584Z,5.18
2018-01-07T18:53:21.509Z,5.11
2018-01-07T18:54:21.462Z,5.11
2018-01-07T18:56:14.646Z,5.25
2018-01-07T18:57:14.540Z,5.12
2018-01-07T18:59:07.454Z,5.23
2018-01-07T19:00:07.407Z,5.26
2018-01-07T19:02:00.337Z,5.11
2018-01-07T19:03:00.270Z,5.08
2018-01-07T19:04:53.279Z,5.11
2018-01-07T19:05:53.205Z,5.20
2018-01-07T19:07:46.164Z,5.11
2018-01-07T19:08:45.964Z,5.14
2018-01-07T19:10:38.920Z,5.17
2018-01-07T19:11:38.876Z,5.07
2018-01-07T19:13:31.686Z,5.11
2018-01-07T19:14:31.631Z,5.15
2018-01-07T19:16:24.560Z,5.18
2018-01-07T19:17:24.489Z,5.04